Time;durP1;ratioP1;P1;durP2;ratioP2;P2;SDS_P1;SDS_P2;PMS_P1;PMS_P2;Temp;Humidity;BMP_temperature;BMP_pressure;BME280_temperature;BME280_humidity;BME280_pressure;Samples;Min_cycle;Max_cycle;Signal;HPM_P1;HPM_P2
2023/04/18 00:00:22;;;;;;;18.05;7.38;;;8.90;70.30;;;;;;5088046;27;20151;-88
2023/04/18 00:02:50;;;;;;;12.30;6.88;;;8.90;70.50;;;;;;5104783;27;20033;-88
2023/04/18 00:05:16;;;;;;;12.63;6.82;;;8.80;70.70;;;;;;5086255;27;20036;-88
2023/04/18 00:07:43;;;;;;;13.38;7.22;;;8.80;70.50;;;;;;5088612;27;20425;-89
2023/04/18 00:10:09;;;;;;;14.02;6.97;;;8.80;70.50;;;;;;5084969;27;20043;-88
2023/04/18 00:12:35;;;;;;;13.45;6.93;;;8.80;70.60;;;;;;5088650;27;20060;-88
2023/04/18 00:15:03;;;;;;;12.50;7.45;;;8.80;70.50;;;;;;5081709;28;20123;-88
2023/04/18 00:17:29;;;;;;;13.30;7.22;;;8.80;70.50;;;;;;5090757;27;20042;-88
2023/04/18 00:19:57;;;;;;;13.85;6.15;;;8.70;70.50;;;;;;5096889;27;20097;-88
2023/04/18 00:22:23;;;;;;;14.90;7.18;;;8.70;70.50;;;;;;5095134;27;20031;-88
2023/04/18 00:24:50;;;;;;;12.38;7.13;;;8.70;70.60;;;;;;5076713;28;20403;-88
2023/04/18 00:27:17;;;;;;;14.65;6.72;;;8.70;70.70;;;;;;5077532;27;20123;-88
2023/04/18 00:29:43;;;;;;;12.05;6.63;;;8.60;70.70;;;;;;5111355;27;20130;-88
2023/04/18 00:32:08;;;;;;;15.88;7.20;;;8.60;70.70;;;;;;5095688;27;20474;-89
2023/04/18 00:34:34;;;;;;;11.98;6.90;;;8.60;70.80;;;;;;5111103;27;20031;-88
2023/04/18 00:36:59;;;;;;;15.93;6.82;;;8.60;70.90;;;;;;5096650;27;20070;-88
2023/04/18 00:39:25;;;;;;;17.10;7.60;;;8.50;71.00;;;;;;5112539;27;20062;-88
2023/04/18 00:41:51;;;;;;;14.07;6.90;;;8.50;71.00;;;;;;5078442;28;20148;-88
2023/04/18 00:44:16;;;;;;;14.07;7.55;;;8.50;71.10;;;;;;5076365;28;20042;-87
2023/04/18 00:46:42;;;;;;;15.15;7.65;;;8.50;71.20;;;;;;5084599;28;20408;-88
2023/04/18 00:49:08;;;;;;;14.70;6.90;;;8.50;71.40;;;;;;5076153;28;20399;-88
2023/04/18 00:51:34;;;;;;;13.15;6.60;;;8.40;71.60;;;;;;5075131;28;20567;-88
2023/04/18 00:54:05;;;;;;;13.98;7.80;;;8.30;71.80;;;;;;5092941;28;20085;-88
2023/04/18 00:56:30;;;;;;;14.00;6.82;;;8.30;72.10;;;;;;5084211;27;20086;-87
2023/04/18 00:58:57;;;;;;;13.18;7.13;;;8.30;72.50;;;;;;5095833;27;20066;-88
2023/04/18 01:01:22;;;;;;;12.27;6.90;;;8.20;72.40;;;;;;5095687;27;20070;-88
2023/04/18 01:03:48;;;;;;;13.32;6.53;;;8.20;72.60;;;;;;5095729;27;20616;-88
2023/04/18 01:06:14;;;;;;;14.38;8.32;;;8.20;72.90;;;;;;5096247;27;20043;-88
2023/04/18 01:08:42;;;;;;;16.05;7.75;;;8.20;72.90;;;;;;5113105;27;20373;-88
2023/04/18 01:11:07;;;;;;;17.77;7.43;;;8.10;73.30;;;;;;5112091;27;20525;-88
2023/04/18 01:13:33;;;;;;;14.13;7.32;;;8.10;73.40;;;;;;5101563;28;20035;-89
2023/04/18 01:15:58;;;;;;;12.05;7.10;;;8.10;73.40;;;;;;5112832;27;20480;-88
2023/04/18 01:18:25;;;;;;;13.48;7.50;;;8.00;73.70;;;;;;5095507;28;20027;-88
2023/04/18 01:20:52;;;;;;;14.98;7.65;;;8.00;73.60;;;;;;5112058;28;20075;-89
2023/04/18 01:23:19;;;;;;;14.07;7.10;;;7.90;73.80;;;;;;5112192;28;20050;-89
2023/04/18 01:25:45;;;;;;;13.82;7.78;;;7.90;74.10;;;;;;5096245;28;20082;-89
2023/04/18 01:28:12;;;;;;;15.25;7.20;;;7.90;74.10;;;;;;5095927;28;20527;-89
2023/04/18 01:30:38;;;;;;;14.52;7.22;;;7.80;74.30;;;;;;5112529;28;20410;-89
2023/04/18 01:33:04;;;;;;;15.75;7.53;;;7.80;74.60;;;;;;5098648;27;20046;-89
2023/04/18 01:35:33;;;;;;;12.52;6.78;;;7.80;74.80;;;;;;5099762;27;20560;-88
2023/04/18 01:38:00;;;;;;;15.52;7.85;;;7.80;75.10;;;;;;5100798;27;20038;-89
2023/04/18 01:40:25;;;;;;;13.38;7.18;;;7.80;75.40;;;;;;5099703;27;20027;-88
2023/04/18 01:42:51;;;;;;;13.45;7.75;;;7.80;75.50;;;;;;5098804;27;20633;-88
2023/04/18 01:45:18;;;;;;;14.48;7.70;;;7.80;75.80;;;;;;5116991;27;20039;-88
2023/04/18 01:47:45;;;;;;;12.60;7.45;;;7.70;76.00;;;;;;5099705;27;20038;-88
2023/04/18 01:50:11;;;;;;;15.65;7.40;;;7.70;76.30;;;;;;5098254;27;20035;-88
2023/04/18 01:52:36;;;;;;;14.60;7.30;;;7.70;76.40;;;;;;5099479;27;20107;-88
2023/04/18 01:55:02;;;;;;;12.63;6.55;;;7.70;76.70;;;;;;5099310;27;20099;-88
2023/04/18 01:57:28;;;;;;;14.25;7.90;;;7.70;77.10;;;;;;5086185;28;20127;-88
2023/04/18 01:59:54;;;;;;;13.82;7.57;;;7.60;77.30;;;;;;5079036;28;20046;-88
2023/04/18 02:02:20;;;;;;;14.80;7.93;;;7.60;77.70;;;;;;5114638;27;20125;-88
2023/04/18 02:04:45;;;;;;;14.07;8.05;;;7.60;78.00;;;;;;5099283;27;20043;-88
2023/04/18 02:07:11;;;;;;;15.52;7.82;;;7.60;78.40;;;;;;5099186;27;20043;-88
2023/04/18 02:09:37;;;;;;;15.07;7.78;;;7.50;79.50;;;;;;5099125;27;20039;-88
2023/04/18 02:12:03;;;;;;;13.77;7.88;;;7.50;79.30;;;;;;5099693;27;20078;-88
2023/04/18 02:14:34;;;;;;;13.70;7.93;;;7.60;79.70;;;;;;5098881;27;20035;-88
2023/04/18 02:16:59;;;;;;;13.23;7.35;;;7.60;80.10;;;;;;5100142;27;20434;-88
2023/04/18 02:19:27;;;;;;;16.90;7.90;;;7.50;80.40;;;;;;5099028;27;20031;-88
2023/04/18 02:21:53;;;;;;;14.93;7.57;;;7.50;80.90;;;;;;5097890;27;20038;-88
2023/04/18 02:24:18;;;;;;;14.73;7.00;;;7.50;81.30;;;;;;5099049;27;20031;-88
2023/04/18 02:26:44;;;;;;;16.23;7.68;;;7.50;81.60;;;;;;5098889;27;20039;-88
2023/04/18 02:29:10;;;;;;;14.55;8.32;;;7.50;82.00;;;;;;5115740;27;20050;-88
2023/04/18 02:31:38;;;;;;;14.25;8.10;;;7.50;82.60;;;;;;5098353;27;20083;-88
2023/04/18 02:34:03;;;;;;;15.00;8.40;;;7.50;83.00;;;;;;5101817;28;20040;-88
2023/04/18 02:36:29;;;;;;;16.02;7.28;;;7.50;83.40;;;;;;5078600;28;20028;-88
2023/04/18 02:38:55;;;;;;;16.00;7.65;;;7.50;84.50;;;;;;5089949;27;20388;-88
2023/04/18 02:41:21;;;;;;;13.65;7.70;;;7.50;84.00;;;;;;5097685;27;20047;-88
2023/04/18 02:43:46;;;;;;;15.40;7.65;;;7.50;84.50;;;;;;5097321;27;20077;-88
2023/04/18 02:46:12;;;;;;;15.13;8.02;;;7.50;84.90;;;;;;5083986;28;20127;-88
2023/04/18 02:48:38;;;;;;;14.70;8.65;;;7.50;86.10;;;;;;5078537;28;20094;-88
2023/04/18 02:51:05;;;;;;;15.02;7.78;;;7.50;86.10;;;;;;5093533;27;20038;-88
2023/04/18 02:53:30;;;;;;;13.70;7.53;;;7.50;86.40;;;;;;5098033;27;20527;-88
2023/04/18 02:55:56;;;;;;;16.48;8.20;;;7.40;87.10;;;;;;5098043;27;20043;-87
2023/04/18 02:58:22;;;;;;;18.17;8.25;;;7.40;87.50;;;;;;5115792;27;20045;-88
2023/04/18 03:00:51;;;;;;;15.82;8.20;;;7.40;87.90;;;;;;5115373;27;20442;-88
2023/04/18 03:03:17;;;;;;;15.68;8.20;;;7.40;88.30;;;;;;5097504;27;20027;-88
2023/04/18 03:05:42;;;;;;;15.40;8.30;;;7.40;89.20;;;;;;5098722;27;20039;-88
2023/04/18 03:08:08;;;;;;;14.13;7.78;;;7.40;89.50;;;;;;5097591;27;20043;-87
2023/04/18 03:10:34;;;;;;;14.00;7.80;;;7.40;90.00;;;;;;5098298;27;20047;-88
2023/04/18 03:13:00;;;;;;;13.63;7.93;;;7.40;90.60;;;;;;5098390;27;20035;-88
2023/04/18 03:15:26;;;;;;;17.88;8.35;;;7.40;90.60;;;;;;5114521;27;20043;-88
2023/04/18 03:17:52;;;;;;;16.42;8.48;;;7.40;90.90;;;;;;5098069;27;20046;-88
2023/04/18 03:20:18;;;;;;;13.48;7.35;;;7.40;91.30;;;;;;5097406;27;20031;-88
2023/04/18 03:22:44;;;;;;;16.48;8.80;;;7.40;91.60;;;;;;5098364;27;20047;-89
2023/04/18 03:25:10;;;;;;;14.85;7.47;;;7.40;91.80;;;;;;5098537;27;20102;-88
2023/04/18 03:27:35;;;;;;;15.63;8.50;;;7.40;91.90;;;;;;5097907;27;20488;-88
2023/04/18 03:30:01;;;;;;;17.05;8.35;;;7.40;92.10;;;;;;5115360;27;20039;-88
2023/04/18 03:32:27;;;;;;;15.57;7.25;;;7.40;92.40;;;;;;5103996;28;20039;-88
2023/04/18 03:34:53;;;;;;;16.73;8.43;;;7.40;93.00;;;;;;5077631;28;20043;-88
2023/04/18 03:37:18;;;;;;;16.20;8.25;;;7.40;94.00;;;;;;5082720;27;20026;-88
2023/04/18 03:39:44;;;;;;;17.17;8.68;;;7.50;94.00;;;;;;5097199;27;20035;-88
2023/04/18 03:42:10;;;;;;;15.68;7.72;;;7.50;93.90;;;;;;5098008;27;20077;-88
2023/04/18 03:44:35;;;;;;;14.65;8.25;;;7.50;94.10;;;;;;5097142;27;20480;-89
2023/04/18 03:47:01;;;;;;;15.15;8.38;;;7.50;94.40;;;;;;5097367;27;20114;-89
2023/04/18 03:49:27;;;;;;;14.88;8.55;;;7.50;94.90;;;;;;5114516;27;20403;-88
2023/04/18 03:51:52;;;;;;;16.67;8.50;;;7.50;94.90;;;;;;5114191;27;20043;-88
2023/04/18 03:54:18;;;;;;;15.27;8.15;;;7.50;95.10;;;;;;5097361;27;20442;-89
2023/04/18 03:56:44;;;;;;;16.55;8.48;;;7.60;95.30;;;;;;5113860;27;20042;-88
2023/04/18 03:59:10;;;;;;;15.45;7.43;;;7.60;95.50;;;;;;5096929;27;20038;-90
2023/04/18 04:01:36;;;;;;;14.57;7.80;;;7.60;95.70;;;;;;5113695;27;20043;-89
2023/04/18 04:04:02;;;;;;;15.18;7.70;;;7.60;96.00;;;;;;5097132;27;20076;-88
2023/04/18 04:06:28;;;;;;;17.40;7.50;;;7.60;96.00;;;;;;5097950;27;20388;-88
2023/04/18 04:08:54;;;;;;;13.70;7.20;;;7.60;96.00;;;;;;5097703;27;20042;-89
2023/04/18 04:11:20;;;;;;;14.85;6.97;;;7.60;96.20;;;;;;5113501;27;20111;-88
2023/04/18 04:13:46;;;;;;;13.48;7.03;;;7.60;96.50;;;;;;5114289;27;20635;-88
2023/04/18 04:16:12;;;;;;;14.80;7.70;;;7.70;96.40;;;;;;5089950;28;20130;-88
2023/04/18 04:18:37;;;;;;;12.65;7.05;;;7.70;96.40;;;;;;5093481;28;20512;-88
2023/04/18 04:21:04;;;;;;;16.50;6.95;;;7.70;96.60;;;;;;5079674;27;20092;-88
2023/04/18 04:23:30;;;;;;;14.43;7.47;;;7.70;96.70;;;;;;5096298;27;20560;-88
2023/04/18 04:25:55;;;;;;;13.65;7.15;;;7.70;96.50;;;;;;5097120;27;20039;-88
2023/04/18 04:28:21;;;;;;;14.00;8.20;;;7.70;96.60;;;;;;5085963;28;20043;-89
2023/04/18 04:30:51;;;;;;;14.25;6.65;;;7.70;96.90;;;;;;5093314;28;20031;-88
2023/04/18 04:33:23;;;;;;;14.48;7.13;;;7.80;97.10;;;;;;5076679;28;20508;-88
2023/04/18 04:35:49;;;;;;;14.90;7.53;;;7.80;97.80;;;;;;5076726;28;20404;-88
2023/04/18 04:38:15;;;;;;;15.45;8.10;;;7.80;97.60;;;;;;5076476;28;20039;-88
2023/04/18 04:40:41;;;;;;;16.05;7.85;;;7.80;98.50;;;;;;5082628;27;20492;-88
2023/04/18 04:43:11;;;;;;;15.23;8.05;;;7.80;98.60;;;;;;5113326;27;20042;-88
2023/04/18 04:45:38;;;;;;;15.50;8.55;;;7.80;98.40;;;;;;5096586;27;20096;-89
2023/04/18 04:48:04;;;;;;;18.35;8.70;;;7.80;98.80;;;;;;5113923;27;20046;-89
2023/04/18 04:50:33;;;;;;;16.60;8.40;;;7.80;99.10;;;;;;5096275;27;20039;-88
2023/04/18 04:52:59;;;;;;;14.13;7.65;;;7.80;99.50;;;;;;5113303;27;20031;-88
2023/04/18 04:55:25;;;;;;;16.17;7.88;;;7.80;99.90;;;;;;5113420;27;20142;-89
2023/04/18 04:57:50;;;;;;;14.77;7.85;;;7.90;99.90;;;;;;5112804;27;20031;-89
2023/04/18 05:00:19;;;;;;;16.33;8.63;;;7.90;99.90;;;;;;5096190;27;20114;-89
2023/04/18 05:02:46;;;;;;;15.85;8.50;;;7.80;99.90;;;;;;5096626;27;20045;-89
2023/04/18 05:05:12;;;;;;;16.42;8.32;;;7.90;99.90;;;;;;5096197;27;20576;-88
2023/04/18 05:07:37;;;;;;;17.55;9.32;;;7.80;99.90;;;;;;5096241;27;20043;-89
2023/04/18 05:10:03;;;;;;;16.20;8.63;;;7.90;99.90;;;;;;5113416;27;20043;-89
2023/04/18 05:12:29;;;;;;;14.85;8.77;;;7.90;99.90;;;;;;5085959;27;20039;-89
2023/04/18 05:14:54;;;;;;;18.85;8.40;;;7.90;99.90;;;;;;5095803;28;20050;-88
2023/04/18 05:17:20;;;;;;;18.42;9.13;;;7.90;99.90;;;;;;5095420;27;20122;-88
2023/04/18 05:19:45;;;;;;;17.58;9.18;;;7.90;99.90;;;;;;5081273;28;20400;-88
2023/04/18 05:22:11;;;;;;;18.08;8.70;;;7.90;99.90;;;;;;5092432;28;20035;-88
2023/04/18 05:24:37;;;;;;;16.85;8.77;;;7.90;99.90;;;;;;5093223;28;20038;-88
2023/04/18 05:27:02;;;;;;;17.33;9.65;;;7.90;99.90;;;;;;5094245;28;20614;-88
2023/04/18 05:29:28;;;;;;;16.33;9.10;;;7.90;99.90;;;;;;5091868;28;20035;-88
2023/04/18 05:31:54;;;;;;;20.35;9.68;;;7.90;99.90;;;;;;5096309;28;20039;-88
2023/04/18 05:34:19;;;;;;;17.40;8.52;;;8.00;99.90;;;;;;5094354;28;20043;-88
2023/04/18 05:36:46;;;;;;;16.02;8.50;;;8.00;99.90;;;;;;5075781;28;20039;-88
2023/04/18 05:39:12;;;;;;;16.13;8.80;;;8.00;99.90;;;;;;5092062;28;20036;-89
2023/04/18 05:41:38;;;;;;;16.45;8.57;;;8.00;99.90;;;;;;5088739;28;20066;-88
2023/04/18 05:44:04;;;;;;;15.13;8.25;;;8.00;99.90;;;;;;5095640;28;20416;-87
2023/04/18 05:46:30;;;;;;;17.25;8.45;;;8.00;99.90;;;;;;5095956;28;20493;-88
2023/04/18 05:48:55;;;;;;;14.82;8.73;;;8.00;99.90;;;;;;5079713;28;20040;-88
2023/04/18 05:51:21;;;;;;;15.90;8.95;;;8.00;99.90;;;;;;5075597;28;20500;-89
2023/04/18 05:53:47;;;;;;;16.88;9.18;;;8.00;99.90;;;;;;5086726;28;20664;-88
2023/04/18 05:56:13;;;;;;;17.15;9.75;;;8.00;99.90;;;;;;5095375;28;20493;-88
2023/04/18 05:58:38;;;;;;;18.75;9.68;;;8.00;99.90;;;;;;5086065;28;20225;-88
2023/04/18 06:01:05;;;;;;;17.67;10.10;;;8.00;99.90;;;;;;5094953;28;20031;-88
2023/04/18 06:03:30;;;;;;;16.85;9.43;;;8.00;99.90;;;;;;5094680;28;20504;-88
2023/04/18 06:05:56;;;;;;;19.50;9.55;;;8.00;99.90;;;;;;5095211;28;20119;-88
2023/04/18 06:08:22;;;;;;;16.17;9.57;;;8.00;99.90;;;;;;5095652;28;20035;-89
2023/04/18 06:10:48;;;;;;;19.75;9.52;;;8.00;99.90;;;;;;5094802;28;20103;-89
2023/04/18 06:13:13;;;;;;;18.42;9.43;;;8.10;99.90;;;;;;5096472;27;20055;-89
2023/04/18 06:15:39;;;;;;;18.10;9.75;;;8.10;99.90;;;;;;5105578;28;20568;-89
2023/04/18 06:18:05;;;;;;;15.68;9.15;;;8.10;99.90;;;;;;5095473;27;20122;-89
2023/04/18 06:20:31;;;;;;;17.08;8.95;;;8.20;99.90;;;;;;5088820;27;20127;-89
2023/04/18 06:22:56;;;;;;;17.92;9.73;;;8.20;99.90;;;;;;5101824;27;20372;-89
2023/04/18 06:25:23;;;;;;;18.55;9.70;;;8.30;99.90;;;;;;5119283;27;20039;-89
2023/04/18 06:27:49;;;;;;;17.55;9.00;;;8.30;99.90;;;;;;5107852;27;20066;-89
2023/04/18 06:30:14;;;;;;;17.90;9.07;;;8.40;99.90;;;;;;5116954;27;20463;-88
2023/04/18 06:32:40;;;;;;;18.20;9.57;;;8.50;99.90;;;;;;5116709;27;20530;-89
2023/04/18 06:35:06;;;;;;;16.85;9.02;;;8.50;99.90;;;;;;5099156;27;20411;-89
2023/04/18 06:37:32;;;;;;;16.25;9.32;;;8.60;99.90;;;;;;5098778;27;20098;-90
2023/04/18 06:39:57;;;;;;;15.57;9.18;;;8.60;99.90;;;;;;5114865;27;20123;-89
2023/04/18 06:42:23;;;;;;;17.30;9.95;;;8.80;99.90;;;;;;5098525;27;20043;-89
2023/04/18 06:44:49;;;;;;;16.83;9.48;;;8.90;99.90;;;;;;5098741;27;20031;-89
2023/04/18 06:47:15;;;;;;;17.38;9.90;;;9.00;99.90;;;;;;5099078;27;20645;-89
2023/04/18 06:49:40;;;;;;;20.23;9.95;;;9.10;99.90;;;;;;5115814;27;20066;-89
2023/04/18 06:52:06;;;;;;;18.90;9.57;;;9.10;99.90;;;;;;5090044;28;20048;-89
2023/04/18 06:54:32;;;;;;;21.55;10.27;;;9.20;99.90;;;;;;5078096;28;20403;-89
2023/04/18 06:56:58;;;;;;;17.13;9.77;;;9.20;99.90;;;;;;5081524;27;20047;-89
2023/04/18 06:59:23;;;;;;;19.00;9.68;;;9.20;99.90;;;;;;5098828;27;20365;-89
2023/04/18 07:01:50;;;;;;;16.08;9.23;;;9.20;99.90;;;;;;5114860;27;20484;-89
2023/04/18 07:04:15;;;;;;;17.45;9.43;;;9.30;99.90;;;;;;5115071;27;20404;-89
2023/04/18 07:06:41;;;;;;;17.08;9.55;;;9.30;99.90;;;;;;5099313;27;20496;-90
2023/04/18 07:09:07;;;;;;;17.23;9.73;;;9.40;99.90;;;;;;5115282;27;20034;-90
2023/04/18 07:11:33;;;;;;;17.35;9.40;;;9.40;99.90;;;;;;5098844;27;20122;-89
2023/04/18 07:13:58;;;;;;;18.75;9.90;;;9.40;99.90;;;;;;5099014;27;20043;-89
2023/04/18 07:16:24;;;;;;;18.02;9.57;;;9.60;99.90;;;;;;5097474;27;20133;-89
2023/04/18 07:18:50;;;;;;;14.35;9.23;;;9.70;99.90;;;;;;5101339;27;20030;-89
2023/04/18 07:21:18;;;;;;;16.58;9.10;;;9.80;99.90;;;;;;5105576;27;20031;-89
2023/04/18 07:23:43;;;;;;;17.58;9.65;;;9.80;99.20;;;;;;5096863;27;20027;-89
2023/04/18 07:26:11;;;;;;;14.70;9.05;;;9.90;98.40;;;;;;5097292;27;20031;-89
2023/04/18 07:28:37;;;;;;;18.00;9.57;;;9.80;97.90;;;;;;5079303;28;20085;-89
2023/04/18 07:31:03;;;;;;;18.27;10.10;;;9.90;97.70;;;;;;5093627;28;20040;-89
2023/04/18 07:33:32;;;;;;;15.10;9.38;;;9.90;97.30;;;;;;5110596;27;20035;-89
2023/04/18 07:35:59;;;;;;;16.30;9.27;;;10.00;98.40;;;;;;5112575;27;20130;-90
2023/04/18 07:38:26;;;;;;;15.73;9.38;;;10.10;97.50;;;;;;5095575;27;20671;-90
2023/04/18 07:40:59;;;;;;;16.35;9.25;;;10.10;97.00;;;;;;5096776;27;20035;-89
2023/04/18 07:43:25;;;;;;;15.93;8.75;;;10.10;96.20;;;;;;5114287;27;20042;-90
2023/04/18 07:45:52;;;;;;;15.35;9.23;;;10.10;95.80;;;;;;5088546;27;20047;-90
2023/04/18 07:48:20;;;;;;;16.50;9.68;;;10.10;94.80;;;;;;5097811;27;20082;-90
2023/04/18 07:50:46;;;;;;;17.50;8.98;;;10.10;94.40;;;;;;5090776;28;20047;-90
2023/04/18 07:53:12;;;;;;;15.77;9.10;;;10.10;94.80;;;;;;5131581;27;20039;-91
2023/04/18 07:55:37;;;;;;;16.90;9.20;;;10.20;95.00;;;;;;5122636;27;20065;-91
2023/04/18 07:58:03;;;;;;;15.75;8.55;;;10.30;94.80;;;;;;5122200;27;20038;-91
2023/04/18 08:00:31;;;;;;;14.55;8.27;;;10.50;94.40;;;;;;5124007;27;20031;-91
2023/04/18 08:02:57;;;;;;;16.92;9.68;;;10.50;94.10;;;;;;5118854;27;20039;-92
2023/04/18 08:05:23;;;;;;;14.63;8.65;;;10.60;93.70;;;;;;5105341;27;20033;-90
2023/04/18 08:07:49;;;;;;;13.90;8.20;;;10.60;93.50;;;;;;5104383;27;20035;-90
2023/04/18 08:10:15;;;;;;;15.18;8.95;;;10.60;93.10;;;;;;5099407;27;20542;-95
2023/04/18 08:12:40;;;;;;;19.33;10.02;;;10.60;92.90;;;;;;5097985;27;20039;-91
2023/04/18 08:15:07;;;;;;;12.98;8.68;;;10.60;92.60;;;;;;5113430;27;20039;-91
2023/04/18 08:17:33;;;;;;;15.55;9.15;;;10.70;92.30;;;;;;5092283;28;20027;-91
2023/04/18 08:19:59;;;;;;;16.10;10.18;;;10.70;92.10;;;;;;5085472;27;20045;-91
2023/04/18 08:22:25;;;;;;;16.50;9.43;;;10.80;92.40;;;;;;5096371;27;20060;-90
2023/04/18 08:24:51;;;;;;;16.25;9.73;;;10.90;91.90;;;;;;5107546;27;20062;-90
2023/04/18 08:27:17;;;;;;;14.38;8.55;;;10.90;91.60;;;;;;5103346;28;20040;-90
2023/04/18 08:29:42;;;;;;;18.77;10.43;;;11.00;92.10;;;;;;5104034;27;20421;-91
2023/04/18 08:32:08;;;;;;;17.08;10.07;;;11.10;91.70;;;;;;5122808;27;20579;-91
2023/04/18 08:34:37;;;;;;;17.45;10.52;;;11.20;91.60;;;;;;5105825;27;20059;-91
2023/04/18 08:37:03;;;;;;;18.73;11.38;;;11.30;91.50;;;;;;5120185;27;20703;-90
2023/04/18 08:39:29;;;;;;;18.02;9.95;;;11.40;91.00;;;;;;5107382;27;20501;-90
2023/04/18 08:41:59;;;;;;;15.63;9.57;;;11.50;90.90;;;;;;5111606;27;20046;-90
2023/04/18 08:44:28;;;;;;;15.13;9.88;;;11.60;90.70;;;;;;5092464;27;20035;-90
2023/04/18 08:46:54;;;;;;;17.05;10.25;;;11.60;90.50;;;;;;5100407;27;20096;-91
2023/04/18 08:49:23;;;;;;;15.63;9.93;;;11.70;90.40;;;;;;5108271;27;20090;-90
2023/04/18 08:51:51;;;;;;;17.02;10.02;;;11.70;90.30;;;;;;5100569;27;20034;-91
2023/04/18 08:54:18;;;;;;;15.82;9.65;;;11.70;90.10;;;;;;5107420;27;20114;-91
2023/04/18 08:56:44;;;;;;;17.23;10.35;;;11.80;90.00;;;;;;5120173;27;20403;-90
2023/04/18 08:59:10;;;;;;;18.85;10.85;;;11.80;89.70;;;;;;5104801;27;20035;-91
2023/04/18 09:01:57;;;;;;;15.80;9.65;;;11.80;89.50;;;;;;5104635;27;20138;-91
2023/04/18 09:04:54;;;;;;;16.58;10.55;;;11.80;89.30;;;;;;5102276;27;20031;-90
2023/04/18 09:07:28;;;;;;;20.20;11.68;;;11.90;88.60;;;;;;5104071;27;20058;-90
2023/04/18 09:09:56;;;;;;;17.27;10.35;;;11.90;88.60;;;;;;5105228;27;20402;-91
2023/04/18 09:12:28;;;;;;;16.02;9.45;;;12.00;89.10;;;;;;5102786;27;20042;-90
2023/04/18 09:15:09;;;;;;;19.42;10.95;;;12.10;88.10;;;;;;5096581;27;20506;-91
2023/04/18 09:17:45;;;;;;;18.38;10.25;;;12.10;88.50;;;;;;5102123;27;20540;-90
2023/04/18 09:20:14;;;;;;;18.88;10.27;;;12.20;89.20;;;;;;5097542;27;20124;-91
2023/04/18 09:22:56;;;;;;;18.83;11.40;;;12.30;88.90;;;;;;5122430;27;20861;-90
2023/04/18 09:25:34;;;;;;;17.00;10.27;;;12.50;88.50;;;;;;5104199;27;20042;-90
2023/04/18 09:28:23;;;;;;;18.42;11.00;;;12.60;88.10;;;;;;5106293;27;20043;-90
2023/04/18 09:30:50;;;;;;;17.42;10.35;;;12.70;88.00;;;;;;5120247;27;20043;-91
2023/04/18 09:33:16;;;;;;;16.85;11.30;;;12.80;87.50;;;;;;5106186;27;20066;-91
2023/04/18 09:35:42;;;;;;;17.27;10.15;;;13.00;87.00;;;;;;5121206;27;20080;-90
2023/04/18 09:38:09;;;;;;;16.98;10.10;;;13.10;86.10;;;;;;5123357;27;20671;-91
2023/04/18 09:40:34;;;;;;;19.73;10.23;;;13.10;85.10;;;;;;5103709;27;20035;-91
2023/04/18 09:43:15;;;;;;;16.77;10.10;;;13.10;84.70;;;;;;5105773;27;20042;-91
2023/04/18 09:45:41;;;;;;;19.73;12.05;;;13.20;84.60;;;;;;5104239;27;20162;-89
2023/04/18 09:48:07;;;;;;;16.80;11.00;;;13.20;83.40;;;;;;5125226;27;20151;-91
2023/04/18 09:50:34;;;;;;;17.08;10.95;;;13.30;83.80;;;;;;5104541;28;20069;-91
2023/04/18 09:53:00;;;;;;;17.75;10.55;;;13.50;83.40;;;;;;5094452;28;20392;-90
2023/04/18 09:55:26;;;;;;;18.10;10.65;;;13.50;82.50;;;;;;5097525;28;20046;-91
2023/04/18 09:57:53;;;;;;;19.10;14.63;;;13.50;82.10;;;;;;5090420;27;20540;-90
2023/04/18 10:00:23;;;;;;;15.35;11.23;;;13.60;80.80;;;;;;5117312;27;20039;-90
2023/04/18 10:03:09;;;;;;;16.42;10.32;;;13.70;80.70;;;;;;5111621;27;20043;-90
2023/04/18 10:05:38;;;;;;;20.42;10.15;;;13.70;79.80;;;;;;5121407;27;20103;-90
2023/04/18 10:08:05;;;;;;;16.33;9.57;;;13.80;81.00;;;;;;5106380;27;20046;-91
2023/04/18 10:10:31;;;;;;;15.82;12.43;;;13.80;80.80;;;;;;5108184;27;20046;-91
2023/04/18 10:13:00;;;;;;;14.77;8.80;;;13.90;80.10;;;;;;5127944;27;20041;-90
2023/04/18 10:15:28;;;;;;;18.02;10.20;;;14.00;80.00;;;;;;5123596;27;20073;-91
2023/04/18 10:18:02;;;;;;;14.02;8.68;;;14.00;80.10;;;;;;5102842;27;20385;-90
2023/04/18 10:20:29;;;;;;;14.15;10.63;;;14.10;80.10;;;;;;5108879;28;20095;-91
2023/04/18 10:22:57;;;;;;;12.32;7.75;;;14.20;79.20;;;;;;5115454;27;20035;-91
2023/04/18 10:25:47;;;;;;;13.52;10.98;;;14.40;79.20;;;;;;5099219;27;20071;-90
2023/04/18 10:28:13;;;;;;;13.45;7.63;;;14.50;77.20;;;;;;5091871;27;20122;-91
2023/04/18 10:30:39;;;;;;;13.48;11.27;;;14.60;77.70;;;;;;5099422;27;20092;-90
2023/04/18 10:33:38;;;;;;;13.02;8.40;;;14.70;76.70;;;;;;5090971;28;20081;-90
2023/04/18 10:36:05;;;;;;;13.63;8.60;;;14.80;76.80;;;;;;5096553;28;20044;-91
2023/04/18 10:38:43;;;;;;;13.95;9.02;;;15.00;76.60;;;;;;5081663;27;20065;-90
2023/04/18 10:41:27;;;;;;;13.85;11.55;;;15.00;75.80;;;;;;5115239;27;20087;-90
2023/04/18 10:46:49;;;;;;;14.25;11.65;;;15.20;74.00;;;;;;5114787;27;20070;-90
2023/04/18 10:49:17;;;;;;;14.20;10.13;;;15.30;73.10;;;;;;5100572;27;20039;-90
2023/04/18 10:51:44;;;;;;;16.90;13.80;;;15.30;73.80;;;;;;5098995;27;20071;-91
2023/04/18 10:54:12;;;;;;;20.95;10.55;;;15.50;74.20;;;;;;5079481;28;20048;-91
2023/04/18 10:56:38;;;;;;;14.02;12.52;;;15.60;73.80;;;;;;5138506;27;20031;-92
2023/04/18 10:59:04;;;;;;;16.42;14.48;;;15.70;73.40;;;;;;5102512;27;20432;-90
2023/04/18 11:01:31;;;;;;;14.65;10.43;;;15.70;71.60;;;;;;5107176;27;20061;-90
2023/04/18 11:03:58;;;;;;;14.48;12.73;;;15.70;71.90;;;;;;5124053;27;20521;-91
2023/04/18 11:06:26;;;;;;;15.52;13.60;;;15.70;71.60;;;;;;5105716;27;20426;-92
2023/04/18 11:09:07;;;;;;;14.93;12.35;;;15.80;71.40;;;;;;5124575;27;20053;-91
2023/04/18 11:11:33;;;;;;;16.02;11.70;;;16.00;71.10;;;;;;5121212;27;20037;-91
2023/04/18 11:13:59;;;;;;;14.68;12.60;;;16.20;71.40;;;;;;5108441;27;20035;-92
2023/04/18 11:16:29;;;;;;;15.75;13.40;;;16.40;72.00;;;;;;5104939;27;20047;-91
2023/04/18 11:18:55;;;;;;;14.13;12.52;;;16.60;71.30;;;;;;5095990;28;20038;-91
2023/04/18 11:21:26;;;;;;;14.63;12.20;;;16.80;69.80;;;;;;5112930;28;20031;-91
2023/04/18 11:23:52;;;;;;;14.35;12.43;;;16.90;68.40;;;;;;5102997;27;20050;-91
2023/04/18 11:26:18;;;;;;;16.70;11.57;;;17.10;69.50;;;;;;5100063;27;20035;-91
2023/04/18 11:28:50;;;;;;;13.50;11.73;;;17.30;68.70;;;;;;5119973;27;20031;-91
2023/04/18 11:31:16;;;;;;;14.55;11.80;;;17.40;68.30;;;;;;5091547;27;20039;-91
2023/04/18 11:33:45;;;;;;;12.88;11.43;;;17.50;68.00;;;;;;5115760;27;20380;-91
2023/04/18 11:36:12;;;;;;;13.82;10.55;;;17.60;66.90;;;;;;5098731;27;20420;-91
2023/04/18 11:38:39;;;;;;;14.15;10.25;;;17.60;66.00;;;;;;5097267;27;20043;-91
2023/04/18 11:41:10;;;;;;;14.55;11.25;;;17.50;65.20;;;;;;5087287;27;20422;-91
2023/04/18 11:43:36;;;;;;;13.23;10.70;;;17.50;66.10;;;;;;5126275;27;20103;-92
2023/04/18 11:46:02;;;;;;;14.02;11.55;;;17.60;66.00;;;;;;5095084;27;20501;-92
2023/04/18 11:48:41;;;;;;;13.23;10.55;;;17.90;66.40;;;;;;5103409;27;20031;-91
2023/04/18 11:51:28;;;;;;;14.45;10.93;;;18.10;64.80;;;;;;5117088;27;20043;-92
2023/04/18 11:53:53;;;;;;;14.38;11.43;;;18.20;64.40;;;;;;5124820;27;20550;-91
2023/04/18 11:56:19;;;;;;;13.30;9.93;;;18.30;64.60;;;;;;5105844;27;20035;-92
2023/04/18 11:58:45;;;;;;;12.98;10.05;;;18.50;64.40;;;;;;5125265;27;20031;-91
2023/04/18 12:01:22;;;;;;;14.60;10.68;;;18.50;62.90;;;;;;5101118;27;20031;-91
2023/04/18 12:04:02;;;;;;;13.82;11.45;;;18.50;62.70;;;;;;5101205;27;20400;-92
2023/04/18 12:06:47;;;;;;;12.15;9.30;;;18.70;62.90;;;;;;5094789;27;20047;-92
2023/04/18 12:09:14;;;;;;;14.50;10.55;;;18.80;63.20;;;;;;5128374;27;20114;-93
2023/04/18 12:11:41;;;;;;;14.35;10.32;;;18.80;63.10;;;;;;5110902;28;20070;-92
2023/04/18 12:14:17;;;;;;;13.63;9.75;;;19.00;62.90;;;;;;5093773;28;20084;-91
2023/04/18 12:16:43;;;;;;;13.93;9.55;;;19.20;63.20;;;;;;5076649;28;20054;-91
2023/04/18 12:19:10;;;;;;;11.75;9.70;;;19.30;61.60;;;;;;5131119;27;20035;-91
2023/04/18 12:21:49;;;;;;;13.13;9.68;;;19.40;61.20;;;;;;5096843;27;20091;-91
2023/04/18 12:24:15;;;;;;;13.95;9.75;;;19.60;62.10;;;;;;5113479;27;20122;-92
2023/04/18 12:26:44;;;;;;;13.20;9.27;;;19.90;62.00;;;;;;5097427;27;20142;-91
2023/04/18 12:29:10;;;;;;;12.25;8.98;;;19.90;59.60;;;;;;5097283;27;20039;-91
2023/04/18 12:31:36;;;;;;;11.73;9.55;;;19.90;59.80;;;;;;5094883;28;20035;-91
2023/04/18 12:34:01;;;;;;;12.98;9.63;;;19.90;58.90;;;;;;5076667;28;20087;-91
2023/04/18 12:36:27;;;;;;;12.15;9.40;;;20.00;60.20;;;;;;5081736;27;20039;-92
2023/04/18 12:38:53;;;;;;;11.85;9.27;;;20.10;59.50;;;;;;5086669;27;20384;-92
2023/04/18 12:41:18;;;;;;;12.10;9.43;;;20.20;58.90;;;;;;5096788;27;20503;-92
2023/04/18 12:43:44;;;;;;;12.18;8.75;;;20.10;57.60;;;;;;5095860;27;20046;-91